Time;durP1;ratioP1;P1;durP2;ratioP2;P2;SDS_P1;SDS_P2;PMS_P1;PMS_P2;Temp;Humidity;BMP_temperature;BMP_pressure;BME280_temperature;BME280_humidity;BME280_pressure;Samples;Min_cycle;Max_cycle;Signal;HPM_P1;HPM_P2
2021/04/01 00:02:28;;;;;;;28.67;16.27;;;13.40;67.20;;;;;;5046597;28;20500;-42
2021/04/01 00:04:55;;;;;;;17.37;15.03;;;13.40;67.20;;;;;;5045184;28;20509;-42
2021/04/01 00:07:22;;;;;;;23.70;17.20;;;13.40;67.40;;;;;;5040973;28;21318;-42
2021/04/01 00:09:49;;;;;;;21.83;15.87;;;13.40;67.50;;;;;;5047529;28;20455;-42
2021/04/01 00:12:16;;;;;;;22.13;15.50;;;13.30;67.50;;;;;;5045582;28;20897;-42
2021/04/01 00:14:45;;;;;;;23.60;15.77;;;13.30;67.50;;;;;;5049933;28;20486;-42
2021/04/01 00:17:12;;;;;;;21.10;16.30;;;13.30;67.60;;;;;;5046040;28;20489;-42
2021/04/01 00:19:39;;;;;;;27.83;16.37;;;13.20;67.80;;;;;;5047493;28;20469;-42
2021/04/01 00:22:05;;;;;;;22.70;16.07;;;13.20;68.00;;;;;;5045844;28;20454;-42
2021/04/01 00:24:34;;;;;;;28.77;16.03;;;13.20;68.20;;;;;;5043475;28;20524;-42
2021/04/01 00:27:01;;;;;;;20.70;14.67;;;13.20;68.30;;;;;;5042720;28;20465;-42
2021/04/01 00:29:28;;;;;;;25.93;17.53;;;13.10;68.40;;;;;;5046336;28;20974;-42
2021/04/01 00:31:54;;;;;;;21.50;15.50;;;13.10;68.40;;;;;;5047504;28;20502;-42
2021/04/01 00:34:21;;;;;;;28.60;16.33;;;13.10;68.40;;;;;;5044839;28;20521;-42
2021/04/01 00:36:47;;;;;;;24.50;15.97;;;13.00;68.50;;;;;;5046223;28;20988;-42
2021/04/01 00:39:13;;;;;;;22.53;16.43;;;13.00;68.50;;;;;;5049849;28;20842;-42
2021/04/01 00:41:41;;;;;;;24.80;16.53;;;13.00;68.50;;;;;;5043302;28;20882;-42
2021/04/01 00:44:07;;;;;;;27.47;15.53;;;13.00;68.50;;;;;;5040918;28;20555;-42
2021/04/01 00:46:35;;;;;;;21.67;15.97;;;12.90;68.60;;;;;;5045400;28;21027;-42
2021/04/01 00:49:01;;;;;;;23.57;15.70;;;12.90;68.80;;;;;;5040831;28;20467;-42
2021/04/01 00:51:28;;;;;;;23.73;16.47;;;12.90;69.00;;;;;;5045902;28;20516;-42
2021/04/01 00:53:54;;;;;;;25.17;16.33;;;12.80;69.00;;;;;;5048338;28;20537;-42
2021/04/01 00:56:23;;;;;;;22.30;15.40;;;12.80;69.00;;;;;;5042165;28;20480;-42
2021/04/01 00:58:50;;;;;;;23.43;15.77;;;12.80;69.00;;;;;;5045020;28;20455;-42
2021/04/01 01:03:46;;;;;;;24.83;17.43;;;12.70;69.20;;;;;;5047030;28;20826;-42
2021/04/01 01:06:13;;;;;;;21.63;16.30;;;12.70;69.30;;;;;;5043251;28;20573;-42
2021/04/01 01:08:39;;;;;;;25.47;16.70;;;12.60;69.50;;;;;;5052145;28;20891;-43
2021/04/01 01:11:06;;;;;;;27.67;16.50;;;12.60;69.50;;;;;;5042218;28;20824;-42
2021/04/01 01:13:32;;;;;;;25.50;16.93;;;12.60;69.50;;;;;;5040968;28;20484;-42
2021/04/01 01:15:58;;;;;;;26.07;17.03;;;12.50;69.60;;;;;;5042773;28;20451;-42
2021/04/01 01:18:30;;;;;;;23.67;15.80;;;12.50;69.70;;;;;;5042420;28;20466;-42
2021/04/01 01:21:00;;;;;;;23.73;17.77;;;12.50;69.60;;;;;;5045996;28;20452;-42
2021/04/01 01:23:28;;;;;;;25.00;17.90;;;12.40;69.70;;;;;;5046657;28;20471;-42
2021/04/01 01:25:55;;;;;;;28.27;16.53;;;12.40;69.80;;;;;;5045649;28;20477;-42
2021/04/01 01:28:22;;;;;;;23.00;16.53;;;12.40;69.90;;;;;;5041066;28;20458;-42
2021/04/01 01:30:50;;;;;;;24.30;16.80;;;12.30;70.10;;;;;;5046399;28;20455;-42
2021/04/01 01:33:19;;;;;;;28.87;17.93;;;12.30;70.10;;;;;;5046333;28;20486;-42
2021/04/01 01:35:49;;;;;;;20.93;16.97;;;12.30;70.10;;;;;;5042226;28;20808;-42
2021/04/01 01:38:16;;;;;;;28.83;17.70;;;12.30;70.20;;;;;;5045505;28;20819;-42
2021/04/01 01:40:42;;;;;;;22.23;15.67;;;12.20;70.40;;;;;;5060429;28;21134;-42
2021/04/01 01:43:10;;;;;;;25.90;16.60;;;12.20;70.40;;;;;;5045990;28;20967;-42
2021/04/01 01:45:39;;;;;;;26.90;18.03;;;12.20;70.40;;;;;;5045057;28;20467;-42
2021/04/01 01:48:08;;;;;;;27.13;16.63;;;12.10;70.50;;;;;;5041434;28;20467;-42
2021/04/01 01:50:37;;;;;;;27.87;16.17;;;12.10;70.60;;;;;;5044974;28;20457;-42
2021/04/01 01:53:04;;;;;;;25.73;15.60;;;12.10;70.80;;;;;;5046193;28;20502;-42
2021/04/01 01:55:31;;;;;;;20.77;17.53;;;12.10;70.80;;;;;;5043836;28;20462;-42
2021/04/01 01:57:57;;;;;;;24.47;17.10;;;12.10;70.80;;;;;;5043060;28;20466;-42
2021/04/01 02:00:26;;;;;;;23.40;16.80;;;12.00;70.90;;;;;;5044380;28;20466;-42
2021/04/01 02:02:57;;;;;;;23.33;15.67;;;12.00;71.00;;;;;;5046647;28;20470;-42
2021/04/01 02:05:26;;;;;;;28.10;16.07;;;12.00;71.10;;;;;;5042764;28;20455;-42
2021/04/01 02:07:53;;;;;;;23.80;14.90;;;12.00;71.10;;;;;;5039311;28;20477;-42
2021/04/01 02:10:29;;;;;;;25.77;17.57;;;11.90;71.20;;;;;;5048437;28;20455;-42
2021/04/01 02:12:56;;;;;;;22.17;15.50;;;11.90;71.20;;;;;;5046463;28;20829;-42
2021/04/01 02:15:28;;;;;;;24.60;16.50;;;11.90;71.30;;;;;;5042671;28;20454;-42
2021/04/01 02:18:15;;;;;;;24.70;16.37;;;11.90;71.40;;;;;;5046325;28;20459;-42
2021/04/01 02:20:48;;;;;;;22.40;14.70;;;11.80;71.40;;;;;;5037324;28;20450;-42
2021/04/01 02:23:25;;;;;;;21.87;15.90;;;11.80;71.30;;;;;;5043242;28;20458;-42
2021/04/01 02:25:53;;;;;;;31.90;16.70;;;11.80;71.40;;;;;;5056726;28;20455;-43
2021/04/01 02:28:22;;;;;;;20.10;14.20;;;11.70;71.10;;;;;;5042098;28;20465;-42
2021/04/01 02:30:51;;;;;;;21.73;14.83;;;11.70;70.90;;;;;;5042919;28;20470;-42
2021/04/01 02:33:23;;;;;;;26.80;14.90;;;11.60;70.70;;;;;;5042162;28;20500;-42
2021/04/01 02:35:51;;;;;;;20.87;14.40;;;11.60;70.70;;;;;;5045750;28;20459;-42
2021/04/01 02:38:18;;;;;;;22.23;15.53;;;11.60;70.80;;;;;;5043147;28;20464;-42
2021/04/01 02:40:44;;;;;;;19.50;14.67;;;11.50;71.10;;;;;;5041108;28;20443;-42
2021/04/01 02:43:13;;;;;;;26.80;17.03;;;11.50;71.30;;;;;;5042144;28;20465;-42
2021/04/01 02:45:40;;;;;;;21.50;14.83;;;11.50;71.40;;;;;;5043919;28;20450;-42
2021/04/01 02:48:07;;;;;;;28.80;16.90;;;11.40;71.40;;;;;;5041098;28;20455;-43
2021/04/01 02:50:33;;;;;;;23.63;15.37;;;11.40;71.50;;;;;;5042410;28;20881;-42
2021/04/01 02:52:59;;;;;;;22.87;15.40;;;11.40;71.60;;;;;;5040364;28;20487;-42
2021/04/01 02:55:25;;;;;;;24.70;15.30;;;11.40;71.60;;;;;;5040586;28;20485;-42
2021/04/01 02:57:52;;;;;;;22.43;14.53;;;11.40;71.80;;;;;;5051929;28;20464;-42
2021/04/01 03:00:22;;;;;;;27.43;15.80;;;11.40;71.90;;;;;;5041239;28;20576;-42
2021/04/01 03:02:52;;;;;;;23.63;15.27;;;11.40;71.90;;;;;;5043367;28;20491;-42
2021/04/01 03:05:19;;;;;;;20.23;14.80;;;11.30;72.10;;;;;;5042989;28;20463;-42
2021/04/01 03:07:46;;;;;;;20.17;14.93;;;11.30;72.20;;;;;;5041811;28;20447;-42
2021/04/01 03:10:13;;;;;;;22.80;16.67;;;11.30;72.20;;;;;;5039647;28;20940;-42
2021/04/01 03:12:40;;;;;;;21.17;14.03;;;11.30;72.30;;;;;;5059470;28;20515;-43
2021/04/01 03:15:10;;;;;;;25.07;15.70;;;11.30;72.40;;;;;;5045799;28;20936;-42
2021/04/01 03:17:38;;;;;;;22.97;15.63;;;11.30;72.40;;;;;;5045476;28;20484;-43
2021/04/01 03:20:06;;;;;;;21.90;15.10;;;11.20;72.50;;;;;;5046279;28;20458;-43
2021/04/01 03:22:33;;;;;;;22.10;15.30;;;11.30;72.60;;;;;;5043616;28;20489;-42
2021/04/01 03:24:59;;;;;;;20.13;15.07;;;11.30;72.70;;;;;;5041751;28;21056;-43
2021/04/01 03:27:25;;;;;;;21.83;14.97;;;11.30;72.70;;;;;;5041233;28;20450;-42
2021/04/01 03:30:07;;;;;;;20.30;15.83;;;11.30;72.80;;;;;;5042897;28;20466;-43
2021/04/01 03:32:48;;;;;;;25.83;15.50;;;11.20;72.80;;;;;;5038688;28;20456;-43
2021/04/01 03:35:18;;;;;;;22.00;15.20;;;11.20;72.80;;;;;;5044083;28;20481;-42
2021/04/01 03:37:46;;;;;;;20.77;15.13;;;11.20;72.80;;;;;;5040236;28;20471;-42
2021/04/01 03:40:12;;;;;;;20.90;14.67;;;11.20;73.00;;;;;;5038700;28;20464;-42
2021/04/01 03:42:39;;;;;;;21.33;15.00;;;11.20;72.90;;;;;;5040586;28;20452;-42
2021/04/01 03:45:07;;;;;;;18.93;14.50;;;11.20;72.90;;;;;;5041188;28;20454;-43
2021/04/01 03:47:34;;;;;;;23.83;15.57;;;11.20;72.80;;;;;;5044238;28;20455;-42
2021/04/01 03:50:00;;;;;;;19.10;14.00;;;11.30;72.50;;;;;;5040493;28;20549;-42
2021/04/01 03:52:26;;;;;;;20.23;14.70;;;11.20;72.30;;;;;;5042192;28;20489;-42
2021/04/01 03:54:56;;;;;;;20.13;14.67;;;11.20;72.20;;;;;;5041045;28;20488;-42
2021/04/01 03:57:24;;;;;;;29.13;17.90;;;11.20;72.10;;;;;;5039241;28;20513;-43
2021/04/01 04:07:57;;;;;;;29.67;20.00;;;11.10;72.10;;;;;;5040753;28;20764;-42
2021/04/01 04:10:30;;;;;;;36.70;20.13;;;11.00;72.20;;;;;;5037420;28;20550;-42
2021/04/01 04:15:25;;;;;;;26.60;17.50;;;10.90;72.30;;;;;;5034605;28;20452;-43
2021/04/01 04:17:52;;;;;;;23.57;15.90;;;10.90;72.30;;;;;;5039889;28;21005;-43
2021/04/01 04:20:20;;;;;;;23.00;13.50;;;10.90;72.60;;;;;;5042178;28;20459;-43
2021/04/01 04:22:49;;;;;;;17.37;14.47;;;10.80;72.70;;;;;;5043779;28;20458;-42
2021/04/01 04:25:15;;;;;;;20.37;14.77;;;10.80;72.80;;;;;;5040060;28;20458;-43
2021/04/01 04:30:15;;;;;;;21.03;13.97;;;10.80;72.90;;;;;;5039793;28;20466;-43
2021/04/01 04:32:41;;;;;;;22.90;14.10;;;10.80;72.90;;;;;;5040722;28;20449;-43
2021/04/01 04:35:09;;;;;;;20.90;13.13;;;10.70;73.00;;;;;;5039158;28;20451;-42
2021/04/01 04:37:35;;;;;;;20.23;14.40;;;10.70;73.10;;;;;;5040123;28;20526;-43
2021/04/01 04:40:04;;;;;;;17.03;12.70;;;10.70;73.20;;;;;;5044317;28;20462;-42
2021/04/01 04:42:30;;;;;;;23.80;13.70;;;10.70;73.40;;;;;;5043102;28;20974;-43
2021/04/01 04:44:57;;;;;;;21.20;14.03;;;10.70;73.40;;;;;;5055959;28;20471;-42
2021/04/01 04:47:23;;;;;;;19.67;14.20;;;10.70;73.50;;;;;;5044855;28;20499;-42
2021/04/01 04:49:49;;;;;;;21.43;13.00;;;10.70;73.60;;;;;;5044034;28;20944;-43
2021/04/01 04:52:15;;;;;;;21.50;13.50;;;10.70;73.60;;;;;;5044625;28;20565;-42
2021/04/01 04:54:42;;;;;;;16.40;12.87;;;10.70;73.60;;;;;;5046021;28;20486;-42
2021/04/01 04:57:32;;;;;;;17.70;12.97;;;10.70;73.70;;;;;;5063408;28;20461;-43
2021/04/01 05:05:28;;;;;;;17.23;13.50;;;10.70;73.80;;;;;;5042012;28;20453;-42
2021/04/01 05:07:55;;;;;;;21.50;14.47;;;10.70;73.90;;;;;;5042707;28;20451;-42
2021/04/01 05:10:21;;;;;;;19.47;13.67;;;10.70;73.90;;;;;;5044104;28;20451;-42
2021/04/01 05:13:09;;;;;;;19.23;13.60;;;10.70;74.00;;;;;;5049525;28;20447;-42
2021/04/01 05:15:40;;;;;;;18.87;14.53;;;10.70;74.00;;;;;;5047301;28;20538;-43
2021/04/01 05:18:31;;;;;;;19.33;13.37;;;10.70;74.10;;;;;;5044899;28;20485;-43
2021/04/01 05:20:58;;;;;;;18.57;14.17;;;10.70;74.20;;;;;;5046721;28;20477;-43
2021/04/01 05:28:36;;;;;;;22.50;14.40;;;10.80;74.30;;;;;;5043984;28;20466;-43
2021/04/01 05:31:09;;;;;;;22.13;15.20;;;10.80;74.30;;;;;;5047164;28;20451;-43
2021/04/01 05:33:38;;;;;;;19.27;13.90;;;10.80;74.30;;;;;;5043231;28;20509;-42
2021/04/01 05:36:10;;;;;;;22.07;14.40;;;10.80;74.30;;;;;;5048900;28;20447;-43
2021/04/01 05:38:38;;;;;;;23.00;13.80;;;10.80;74.30;;;;;;5044700;28;20461;-43
2021/04/01 05:41:09;;;;;;;23.27;13.70;;;10.80;74.30;;;;;;5045135;28;20449;-43
2021/04/01 05:43:45;;;;;;;20.33;13.20;;;10.90;74.20;;;;;;5041826;28;20880;-43
2021/04/01 05:46:25;;;;;;;19.47;14.17;;;10.90;73.90;;;;;;5045200;28;20471;-42
2021/04/01 06:01:51;;;;;;;23.57;14.53;;;11.00;74.30;;;;;;5039890;28;20505;-42
2021/04/01 06:07:13;;;;;;;18.17;13.23;;;11.00;74.20;;;;;;5040408;28;20463;-42
2021/04/01 06:09:44;;;;;;;21.47;14.27;;;11.00;74.30;;;;;;5040158;28;20466;-42
2021/04/01 06:12:11;;;;;;;22.27;14.23;;;11.00;74.30;;;;;;5039821;28;20464;-43
2021/04/01 06:14:38;;;;;;;21.17;16.50;;;11.00;74.40;;;;;;5046888;28;20483;-43
2021/04/01 06:17:11;;;;;;;20.43;13.80;;;11.10;74.40;;;;;;5045948;28;20475;-43
2021/04/01 06:19:39;;;;;;;22.67;13.33;;;11.10;74.30;;;;;;5040736;28;20554;-43
2021/04/01 06:22:07;;;;;;;21.07;14.30;;;11.20;74.30;;;;;;5042909;28;20539;-43
2021/04/01 06:24:36;;;;;;;19.73;12.80;;;11.20;74.30;;;;;;5043594;28;20459;-42
2021/04/01 06:27:35;;;;;;;17.53;12.97;;;11.30;74.30;;;;;;5041323;28;20455;-42
2021/04/01 06:30:13;;;;;;;18.30;12.00;;;11.30;74.30;;;;;;5045027;28;20451;-43
2021/04/01 06:32:47;;;;;;;16.27;12.43;;;11.50;73.90;;;;;;5039603;28;20469;-43
2021/04/01 06:35:24;;;;;;;25.27;13.37;;;11.60;73.40;;;;;;5040603;28;20612;-43
2021/04/01 06:40:44;;;;;;;16.90;12.23;;;11.80;72.30;;;;;;5043793;28;20455;-42
2021/04/01 06:43:16;;;;;;;15.20;13.47;;;11.90;72.40;;;;;;5047098;28;20456;-42
2021/04/01 06:45:56;;;;;;;17.13;12.23;;;11.90;72.40;;;;;;5045711;28;20450;-42
2021/04/01 06:48:26;;;;;;;19.97;13.00;;;11.90;72.50;;;;;;5044269;28;20509;-42
2021/04/01 06:51:04;;;;;;;19.30;13.97;;;11.90;72.60;;;;;;5039570;28;20848;-42
2021/04/01 06:53:53;;;;;;;18.97;12.70;;;11.90;72.70;;;;;;5034888;28;20483;-42
2021/04/01 07:04:41;;;;;;;24.13;14.50;;;12.10;72.70;;;;;;5043995;28;20462;-45
2021/04/01 07:07:16;;;;;;;20.10;14.77;;;12.20;72.70;;;;;;5046182;28;20542;-45
2021/04/01 07:12:32;;;;;;;18.60;13.93;;;12.50;72.00;;;;;;5045167;28;20469;-45
2021/04/01 07:15:11;;;;;;;23.27;14.67;;;12.60;71.50;;;;;;5049926;28;20479;-45
2021/04/01 07:17:45;;;;;;;19.40;14.60;;;12.70;71.10;;;;;;5048475;28;20581;-45
2021/04/01 07:47:48;;;;;;;22.73;14.40;;;14.50;65.00;;;;;;5043847;28;20455;-46
2021/04/01 07:50:23;;;;;;;17.77;13.77;;;14.60;65.00;;;;;;5043085;28;20960;-46
2021/04/01 07:52:52;;;;;;;15.37;13.80;;;14.80;64.60;;;;;;5036042;28;20461;-45
2021/04/01 07:55:39;;;;;;;23.73;14.63;;;14.90;64.10;;;;;;5042208;28;20624;-45
2021/04/01 08:05:57;;;;;;;22.63;13.90;;;15.60;62.30;;;;;;5040471;28;20446;-45
2021/04/01 08:08:24;;;;;;;21.57;13.97;;;15.80;61.60;;;;;;5041747;28;20451;-45
2021/04/01 08:11:01;;;;;;;22.80;15.40;;;16.00;60.90;;;;;;5038572;28;20972;-45
2021/04/01 08:13:33;;;;;;;22.30;13.20;;;16.20;60.60;;;;;;5039014;28;21025;-45
2021/04/01 08:16:05;;;;;;;18.77;13.57;;;16.40;60.40;;;;;;5051085;28;20464;-45
2021/04/01 08:18:37;;;;;;;20.67;14.03;;;16.50;59.70;;;;;;5041306;28;20634;-45
2021/04/01 08:21:09;;;;;;;20.63;14.10;;;16.60;59.10;;;;;;5035944;28;20496;-46
2021/04/01 08:24:08;;;;;;;36.17;15.70;;;16.70;59.10;;;;;;5043024;28;20463;-46
2021/04/01 08:33:36;;;;;;;15.60;13.63;;;16.80;59.50;;;;;;5048259;28;20466;-46
2021/04/01 08:36:25;;;;;;;22.10;14.10;;;16.80;59.70;;;;;;5056779;28;20446;-46
2021/04/01 08:39:13;;;;;;;19.37;13.20;;;16.80;60.20;;;;;;5042063;28;20430;-46
2021/04/01 08:42:17;;;;;;;17.73;13.00;;;16.90;60.30;;;;;;5045002;28;20451;-46
2021/04/01 08:45:31;;;;;;;20.40;13.50;;;16.90;60.60;;;;;;5047207;28;20455;-45
2021/04/01 08:48:54;;;;;;;18.70;12.20;;;17.20;60.20;;;;;;5041209;28;20446;-47
2021/04/01 08:51:51;;;;;;;17.87;12.00;;;17.50;59.00;;;;;;5045444;28;20466;-46
2021/04/01 08:54:50;;;;;;;15.77;10.37;;;17.90;57.90;;;;;;5046216;28;20482;-46
2021/04/01 08:57:58;;;;;;;17.47;11.13;;;18.20;57.20;;;;;;5045264;28;20465;-43
2021/04/01 09:00:28;;;;;;;15.03;9.83;;;18.60;55.80;;;;;;5030674;28;20454;-44
2021/04/01 09:02:56;;;;;;;15.97;9.73;;;19.00;55.00;;;;;;5040860;28;20473;-46
2021/04/01 09:05:23;;;;;;;18.53;10.90;;;19.20;53.70;;;;;;5047355;28;20454;-46
2021/04/01 09:07:58;;;;;;;16.80;10.50;;;19.50;53.00;;;;;;5048793;28;20888;-43
2021/04/01 09:10:30;;;;;;;11.63;9.83;;;19.70;52.20;;;;;;5038940;28;20944;-44
2021/04/01 09:13:07;;;;;;;20.53;10.97;;;20.00;51.20;;;;;;5041771;28;20463;-45
2021/04/01 09:16:31;;;;;;;16.53;10.30;;;20.30;50.60;;;;;;5046376;28;20865;-44
2021/04/01 09:18:38;;;;;;;23.20;11.20;;;20.50;50.10;;;;;;5037992;28;20485;-45
2021/04/01 09:21:05;;;;;;;17.83;11.73;;;20.70;49.80;;;;;;5044951;28;20990;-46
2021/04/01 09:23:37;;;;;;;16.60;11.40;;;20.90;48.90;;;;;;5044662;28;20489;-45
2021/04/01 09:26:05;;;;;;;17.80;12.67;;;21.00;48.70;;;;;;5044591;28;20949;-43
2021/04/01 09:28:34;;;;;;;24.40;12.10;;;21.20;48.60;;;;;;5042049;28;20471;-44
2021/04/01 09:31:03;;;;;;;25.90;12.50;;;21.40;48.60;;;;;;5042166;28;20558;-45
2021/04/01 09:33:32;;;;;;;15.20;11.80;;;21.60;48.20;;;;;;5042172;28;20486;-46
2021/04/01 09:36:05;;;;;;;24.73;13.90;;;21.70;48.20;;;;;;5042571;28;20584;-44
2021/04/01 09:38:37;;;;;;;20.93;13.10;;;21.90;47.60;;;;;;5041970;28;20459;-44
2021/04/01 09:41:03;;;;;;;24.23;15.07;;;22.20;48.30;;;;;;5048476;28;20466;-46
2021/04/01 09:43:30;;;;;;;27.17;14.50;;;22.40;47.40;;;;;;5045479;28;21260;-46
2021/04/01 09:46:12;;;;;;;21.70;15.03;;;22.70;46.30;;;;;;5044753;28;20459;-46
2021/04/01 09:48:47;;;;;;;26.30;15.43;;;22.90;46.00;;;;;;5055904;28;20453;-45
2021/04/01 09:51:21;;;;;;;23.60;14.93;;;23.10;45.20;;;;;;5041727;28;20951;-43
2021/04/01 09:53:53;;;;;;;34.90;16.17;;;23.40;44.60;;;;;;5038389;28;20485;-43
2021/04/01 09:56:22;;;;;;;28.50;17.50;;;23.70;44.70;;;;;;5044758;28;20453;-43
2021/04/01 09:58:52;;;;;;;28.70;17.17;;;24.00;43.60;;;;;;5038655;28;20465;-43
2021/04/01 10:01:28;;;;;;;30.53;16.30;;;24.20;43.40;;;;;;5040612;28;20496;-44
2021/04/01 10:04:14;;;;;;;25.63;17.30;;;24.40;43.00;;;;;;5037856;28;21033;-44
2021/04/01 10:06:47;;;;;;;24.53;17.37;;;24.60;42.60;;;;;;5044409;28;20463;-43
2021/04/01 10:09:15;;;;;;;25.77;17.33;;;24.80;42.10;;;;;;5044371;28;20958;-44
2021/04/01 10:11:44;;;;;;;32.70;18.90;;;25.00;41.90;;;;;;5053473;28;20457;-44
2021/04/01 10:14:12;;;;;;;30.73;18.10;;;25.20;42.10;;;;;;5040381;28;20578;-44
2021/04/01 10:16:54;;;;;;;31.30;17.87;;;25.40;41.10;;;;;;5035397;28;20475;-44
2021/04/01 10:19:27;;;;;;;33.57;19.20;;;25.70;40.70;;;;;;5042479;28;20451;-44
2021/04/01 10:21:54;;;;;;;26.43;17.40;;;26.00;39.90;;;;;;5023193;28;20999;-46
2021/04/01 10:24:30;;;;;;;27.20;18.77;;;26.20;39.00;;;;;;5041639;28;20453;-45
2021/04/01 10:27:16;;;;;;;33.53;18.40;;;26.50;38.70;;;;;;5040410;28;20537;-46
2021/04/01 10:32:14;;;;;;;35.43;20.40;;;26.90;38.00;;;;;;5042228;28;20486;-45
2021/04/01 10:34:49;;;;;;;35.93;20.13;;;27.10;37.50;;;;;;5039619;28;20482;-45
2021/04/01 10:37:20;;;;;;;29.20;20.00;;;27.30;37.20;;;;;;5036827;28;20457;-46
2021/04/01 10:39:46;;;;;;;31.13;19.00;;;27.50;37.10;;;;;;5052548;28;20533;-46
2021/04/01 10:42:23;;;;;;;34.67;19.87;;;27.60;36.70;;;;;;5059438;28;20977;-45
2021/04/01 10:45:06;;;;;;;30.33;19.77;;;27.70;36.60;;;;;;5044137;28;20456;-46
2021/04/01 10:48:07;;;;;;;32.27;21.90;;;27.90;36.60;;;;;;5028994;28;20473;-46
2021/04/01 10:50:34;;;;;;;35.97;22.37;;;28.20;35.60;;;;;;5039102;28;20465;-45
2021/04/01 10:53:01;;;;;;;40.93;31.67;;;28.40;35.10;;;;;;5046768;28;20603;-43
2021/04/01 10:55:30;;;;;;;44.93;31.00;;;28.60;34.60;;;;;;5045053;28;20482;-44
2021/04/01 10:58:07;;;;;;;61.23;54.10;;;28.70;34.50;;;;;;5042240;28;20460;-44
2021/04/01 11:00:35;;;;;;;149.97;127.83;;;28.80;33.40;;;;;;5037280;28;20653;-44
2021/04/01 11:03:04;;;;;;;66.40;48.50;;;28.90;33.40;;;;;;5040722;28;20216;-44
2021/04/01 11:05:33;;;;;;;161.47;110.20;;;29.10;33.50;;;;;;5043035;28;20207;-44
2021/04/01 11:08:11;;;;;;;56.77;36.10;;;29.20;33.50;;;;;;5041005;28;21152;-44
2021/04/01 11:10:38;;;;;;;38.93;19.00;;;29.30;32.50;;;;;;5042960;28;20203;-44
2021/04/01 11:13:06;;;;;;;27.70;17.10;;;29.30;31.60;;;;;;5042466;28;20219;-44
2021/04/01 11:15:39;;;;;;;26.90;17.30;;;29.30;32.40;;;;;;5056153;28;20495;-45
2021/04/01 11:18:17;;;;;;;23.57;16.13;;;29.30;32.40;;;;;;5040189;28;20573;-44
2021/04/01 11:20:45;;;;;;;23.07;15.90;;;29.30;32.20;;;;;;5043507;28;20517;-44
2021/04/01 11:23:15;;;;;;;23.43;15.67;;;29.30;31.40;;;;;;5039534;28;20571;-46
2021/04/01 11:25:50;;;;;;;26.20;15.47;;;29.30;30.80;;;;;;5045642;28;20211;-45
2021/04/01 11:28:19;;;;;;;23.13;13.63;;;29.20;30.40;;;;;;5043338;28;20358;-45
2021/04/01 11:30:52;;;;;;;27.07;15.17;;;29.20;31.00;;;;;;5041944;28;20204;-45
2021/04/01 11:33:21;;;;;;;22.30;12.90;;;29.10;31.10;;;;;;5043375;28;20212;-46
2021/04/01 11:36:04;;;;;;;18.20;12.00;;;29.00;30.80;;;;;;5045697;28;20207;-45
2021/04/01 11:38:37;;;;;;;18.57;11.37;;;29.00;30.40;;;;;;5039158;28;20462;-45
2021/04/01 11:41:06;;;;;;;23.57;11.67;;;28.90;29.80;;;;;;5034429;28;20909;-45
2021/04/01 11:43:34;;;;;;;16.27;11.47;;;28.90;29.40;;;;;;5038998;28;20562;-45
2021/04/01 11:46:13;;;;;;;16.60;9.60;;;28.80;29.50;;;;;;5054290;28;20205;-45
2021/04/01 11:48:39;;;;;;;15.23;10.53;;;28.80;29.80;;;;;;5044825;28;20461;-45
2021/04/01 11:51:37;;;;;;;15.70;10.00;;;28.70;28.70;;;;;;5035959;28;20577;-45
2021/04/01 11:54:06;;;;;;;14.77;9.47;;;28.70;29.40;;;;;;5038950;28;20479;-45
2021/04/01 11:56:41;;;;;;;15.53;8.70;;;28.60;29.10;;;;;;5046550;28;20973;-45
2021/04/01 11:59:09;;;;;;;16.93;8.63;;;28.50;27.30;;;;;;5046917;28;20958;-45
2021/04/01 12:01:37;;;;;;;15.30;10.23;;;28.40;27.00;;;;;;5043819;28;21004;-45
2021/04/01 12:04:10;;;;;;;14.00;8.30;;;28.30;26.70;;;;;;5046304;28;20461;-45
2021/04/01 12:06:37;;;;;;;13.50;8.80;;;28.10;26.90;;;;;;5049798;28;20519;-45
2021/04/01 12:09:04;;;;;;;20.27;10.10;;;28.10;26.90;;;;;;5049814;28;20466;-45
2021/04/01 12:11:44;;;;;;;17.07;10.17;;;28.00;26.60;;;;;;5046336;28;20460;-45
2021/04/01 12:14:15;;;;;;;21.20;11.40;;;28.10;27.90;;;;;;5044785;28;20485;-45
2021/04/01 12:16:42;;;;;;;20.20;11.37;;;28.00;27.90;;;;;;5041527;28;20470;-45
2021/04/01 12:19:09;;;;;;;19.33;8.93;;;28.00;27.30;;;;;;5043601;28;20828;-45
2021/04/01 12:21:38;;;;;;;26.40;11.80;;;28.00;27.90;;;;;;5042482;28;20990;-45
2021/04/01 12:24:07;;;;;;;19.37;12.83;;;28.00;29.90;;;;;;5041732;28;20516;-45
2021/04/01 12:26:47;;;;;;;18.23;12.50;;;27.90;29.90;;;;;;5043577;28;20545;-45
2021/04/01 12:29:14;;;;;;;19.50;12.43;;;27.90;30.30;;;;;;5044607;28;20951;-45
2021/04/01 12:31:47;;;;;;;20.83;12.80;;;27.90;30.10;;;;;;5038913;28;21045;-45
2021/04/01 12:34:29;;;;;;;18.17;11.67;;;27.80;29.90;;;;;;5043121;28;21031;-44
2021/04/01 12:36:59;;;;;;;19.90;11.00;;;27.80;29.80;;;;;;5048369;28;20455;-45
2021/04/01 12:39:33;;;;;;;14.10;9.80;;;27.80;30.50;;;;;;5044939;28;20858;-45
2021/04/01 12:42:01;;;;;;;19.33;11.53;;;27.80;29.70;;;;;;5046047;28;20448;-45
2021/04/01 12:44:35;;;;;;;19.07;12.30;;;27.80;29.90;;;;;;5049223;28;20453;-44
2021/04/01 12:47:02;;;;;;;23.10;13.03;;;27.90;30.40;;;;;;5051667;28;20464;-45
2021/04/01 12:49:37;;;;;;;23.20;13.20;;;27.90;29.50;;;;;;5041644;28;20461;-45
2021/04/01 12:52:06;;;;;;;21.50;12.20;;;27.90;28.90;;;;;;5041728;28;20458;-44
2021/04/01 12:54:45;;;;;;;19.10;10.90;;;27.90;29.10;;;;;;5046483;28;21986;-45
2021/04/01 12:57:17;;;;;;;17.80;12.23;;;27.90;29.50;;;;;;5060882;28;20455;-45
2021/04/01 13:00:04;;;;;;;16.83;10.97;;;27.90;29.50;;;;;;5040078;28;20461;-45
2021/04/01 13:02:31;;;;;;;17.83;9.80;;;28.00;29.80;;;;;;5042477;28;20469;-45
2021/04/01 13:05:01;;;;;;;16.20;10.33;;;28.10;28.60;;;;;;5051686;28;20450;-45
2021/04/01 13:12:39;;;;;;;19.60;9.90;;;28.20;28.50;;;;;;5044261;28;20462;-45
2021/04/01 13:15:06;;;;;;;19.63;9.50;;;28.20;28.90;;;;;;5042408;28;20485;-45
2021/04/01 13:17:32;;;;;;;23.60;12.23;;;28.20;29.00;;;;;;5042375;28;20498;-45
2021/04/01 13:19:58;;;;;;;21.10;11.30;;;28.20;29.10;;;;;;5044224;28;20450;-45
2021/04/01 13:22:28;;;;;;;21.87;12.53;;;28.10;29.70;;;;;;5046288;28;20458;-45
2021/04/01 13:27:24;;;;;;;20.60;10.40;;;28.10;30.20;;;;;;5043625;28;20450;-45
2021/04/01 13:29:54;;;;;;;25.17;10.13;;;28.00;30.10;;;;;;5039312;28;20553;-45
2021/04/01 13:32:38;;;;;;;17.07;9.87;;;27.90;29.40;;;;;;5042474;28;20490;-46
2021/04/01 13:35:15;;;;;;;13.13;7.70;;;27.80;29.90;;;;;;5036754;28;21197;-45
2021/04/01 13:40:26;;;;;;;12.10;7.50;;;27.80;30.00;;;;;;5045463;28;21307;-45
2021/04/01 13:42:55;;;;;;;13.83;9.70;;;27.80;29.60;;;;;;5045523;28;20970;-44
2021/04/01 13:45:24;;;;;;;20.10;10.80;;;27.80;29.30;;;;;;5046696;28;20508;-45
2021/04/01 13:48:04;;;;;;;17.07;8.60;;;27.90;29.10;;;;;;5043805;28;20889;-46
2021/04/01 13:50:33;;;;;;;17.10;11.17;;;27.90;29.10;;;;;;5047304;28;20453;-46
2021/04/01 13:56:21;;;;;;;11.80;7.30;;;28.00;28.90;;;;;;5047168;28;20449;-46
2021/04/01 14:09:48;;;;;;;11.93;5.40;;;28.20;27.20;;;;;;4981840;28;21185;-44
2021/04/01 14:12:21;;;;;;;11.30;5.93;;;28.30;27.20;;;;;;5031603;28;20799;-46
2021/04/01 14:14:48;;;;;;;8.20;5.20;;;28.30;26.60;;;;;;5049202;28;21009;-45
2021/04/01 14:17:15;;;;;;;12.80;5.90;;;28.30;27.20;;;;;;5043948;28;20475;-46
2021/04/01 14:19:42;;;;;;;11.07;7.00;;;28.40;26.80;;;;;;5044746;28;20833;-46
2021/04/01 14:22:09;;;;;;;18.77;8.67;;;28.50;27.90;;;;;;5045127;28;20541;-45
2021/04/01 14:27:23;;;;;;;14.00;8.77;;;28.50;28.50;;;;;;5045938;28;20458;-45
2021/04/01 14:29:56;;;;;;;16.10;8.80;;;28.50;28.60;;;;;;5045720;28;20461;-45
2021/04/01 14:32:25;;;;;;;15.43;9.20;;;28.40;28.70;;;;;;5061335;28;20466;-45
2021/04/01 14:34:56;;;;;;;13.97;8.37;;;28.50;29.00;;;;;;5044717;28;20224;-46
2021/04/01 14:37:27;;;;;;;18.43;8.50;;;28.50;29.00;;;;;;5038056;28;20831;-46
2021/04/01 14:39:55;;;;;;;12.37;9.07;;;28.60;29.30;;;;;;5041344;28;20259;-46
2021/04/01 14:42:29;;;;;;;16.87;8.63;;;28.60;29.80;;;;;;5041866;28;20458;-46
2021/04/01 14:44:56;;;;;;;13.27;8.80;;;28.60;29.90;;;;;;5041056;28;20463;-45
2021/04/01 14:47:23;;;;;;;23.20;8.90;;;28.60;29.80;;;;;;5042692;28;20450;-45
2021/04/01 14:49:53;;;;;;;16.00;8.33;;;28.70;29.20;;;;;;5042754;28;20204;-44
2021/04/01 14:52:24;;;;;;;13.03;8.27;;;28.70;28.80;;;;;;5044988;28;20462;-44
2021/04/01 14:54:54;;;;;;;17.13;9.70;;;28.60;29.10;;;;;;5043717;28;20350;-45
2021/04/01 14:57:22;;;;;;;12.03;8.37;;;28.60;28.90;;;;;;5043011;28;20947;-45
2021/04/01 14:59:50;;;;;;;12.60;8.50;;;28.60;29.20;;;;;;5043590;28;20286;-44